sensor_id;sensor_type;location;lat;lon;timestamp;pressure;altitude;pressure_sealevel;temperature;humidity
75555;BME280;66087;53.126;17.960;2024-02-16T00:00:31;101182.98;;;9.34;100.00
75555;BME280;66087;53.126;17.960;2024-02-16T00:03:19;101183.13;;;9.35;100.00
75555;BME280;66087;53.126;17.960;2024-02-16T00:05:47;101177.88;;;9.34;100.00
75555;BME280;66087;53.126;17.960;2024-02-16T00:08:18;101179.42;;;9.33;100.00
75555;BME280;66087;53.126;17.960;2024-02-16T00:10:47;101177.55;;;9.33;100.00
75555;BME280;66087;53.126;17.960;2024-02-16T00:13:15;101179.03;;;9.33;100.00
75555;BME280;66087;53.126;17.960;2024-02-16T00:15:42;101177.23;;;9.33;100.00
75555;BME280;66087;53.126;17.960;2024-02-16T00:18:09;101179.34;;;9.33;100.00
75555;BME280;66087;53.126;17.960;2024-02-16T00:20:35;101180.97;;;9.33;100.00
75555;BME280;66087;53.126;17.960;2024-02-16T00:23:02;101179.80;;;9.33;100.00
75555;BME280;66087;53.126;17.960;2024-02-16T00:25:29;101183.06;;;9.33;100.00
75555;BME280;66087;53.126;17.960;2024-02-16T00:27:56;101178.73;;;9.34;100.00
75555;BME280;66087;53.126;17.960;2024-02-16T00:30:22;101184.07;;;9.34;100.00
75555;BME280;66087;53.126;17.960;2024-02-16T00:32:49;101185.94;;;9.34;100.00
75555;BME280;66087;53.126;17.960;2024-02-16T00:35:16;101185.00;;;9.34;100.00
75555;BME280;66087;53.126;17.960;2024-02-16T00:37:44;101186.63;;;9.35;100.00
75555;BME280;66087;53.126;17.960;2024-02-16T00:40:12;101188.80;;;9.36;100.00
75555;BME280;66087;53.126;17.960;2024-02-16T00:42:40;101185.78;;;9.36;100.00
75555;BME280;66087;53.126;17.960;2024-02-16T00:45:07;101183.45;;;9.36;100.00
75555;BME280;66087;53.126;17.960;2024-02-16T00:47:35;101177.80;;;9.35;100.00
75555;BME280;66087;53.126;17.960;2024-02-16T00:50:03;101180.35;;;9.35;100.00
75555;BME280;66087;53.126;17.960;2024-02-16T00:52:31;101181.05;;;9.35;100.00
75555;BME280;66087;53.126;17.960;2024-02-16T00:54:58;101178.95;;;9.35;100.00
75555;BME280;66087;53.126;17.960;2024-02-16T00:57:25;101179.57;;;9.35;100.00
75555;BME280;66087;53.126;17.960;2024-02-16T00:59:51;101183.60;;;9.35;100.00
75555;BME280;66087;53.126;17.960;2024-02-16T01:02:18;101185.63;;;9.35;100.00
75555;BME280;66087;53.126;17.960;2024-02-16T01:04:46;101183.91;;;9.34;100.00
75555;BME280;66087;53.126;17.960;2024-02-16T01:07:13;101184.39;;;9.34;100.00
75555;BME280;66087;53.126;17.960;2024-02-16T01:09:40;101186.40;;;9.33;100.00
75555;BME280;66087;53.126;17.960;2024-02-16T01:12:06;101186.23;;;9.32;100.00
75555;BME280;66087;53.126;17.960;2024-02-16T01:14:33;101180.73;;;9.32;100.00
75555;BME280;66087;53.126;17.960;2024-02-16T01:17:00;101177.48;;;9.31;100.00
75555;BME280;66087;53.126;17.960;2024-02-16T01:19:27;101179.80;;;9.30;100.00
75555;BME280;66087;53.126;17.960;2024-02-16T01:21:53;101175.61;;;9.30;100.00
75555;BME280;66087;53.126;17.960;2024-02-16T01:24:24;101179.34;;;9.29;100.00
75555;BME280;66087;53.126;17.960;2024-02-16T01:26:51;101174.52;;;9.29;100.00
75555;BME280;66087;53.126;17.960;2024-02-16T01:29:17;101170.72;;;9.28;100.00
75555;BME280;66087;53.126;17.960;2024-02-16T01:31:45;101167.24;;;9.27;100.00
75555;BME280;66087;53.126;17.960;2024-02-16T01:34:12;101169.41;;;9.27;100.00
75555;BME280;66087;53.126;17.960;2024-02-16T01:36:39;101167.94;;;9.26;100.00
75555;BME280;66087;53.126;17.960;2024-02-16T01:39:05;101164.98;;;9.25;100.00
75555;BME280;66087;53.126;17.960;2024-02-16T01:41:33;101163.50;;;9.24;100.00
75555;BME280;66087;53.126;17.960;2024-02-16T01:44:01;101161.64;;;9.25;100.00
75555;BME280;66087;53.126;17.960;2024-02-16T01:46:28;101160.79;;;9.24;100.00
75555;BME280;66087;53.126;17.960;2024-02-16T01:48:55;101159.95;;;9.24;100.00
75555;BME280;66087;53.126;17.960;2024-02-16T01:51:24;101158.08;;;9.24;100.00
75555;BME280;66087;53.126;17.960;2024-02-16T01:53:52;101157.23;;;9.25;100.00
75555;BME280;66087;53.126;17.960;2024-02-16T01:56:21;101153.66;;;9.25;100.00
75555;BME280;66087;53.126;17.960;2024-02-16T01:58:48;101153.44;;;9.24;100.00
75555;BME280;66087;53.126;17.960;2024-02-16T02:01:15;101153.66;;;9.24;100.00
75555;BME280;66087;53.126;17.960;2024-02-16T02:03:42;101151.80;;;9.24;100.00
75555;BME280;66087;53.126;17.960;2024-02-16T02:06:09;101148.32;;;9.23;100.00
75555;BME280;66087;53.126;17.960;2024-02-16T02:08:35;101145.06;;;9.22;100.00
75555;BME280;66087;53.126;17.960;2024-02-16T02:11:03;101145.44;;;9.22;100.00
75555;BME280;66087;53.126;17.960;2024-02-16T02:13:29;101142.57;;;9.21;100.00
75555;BME280;66087;53.126;17.960;2024-02-16T02:15:59;101141.02;;;9.22;100.00
75555;BME280;66087;53.126;17.960;2024-02-16T02:18:28;101136.91;;;9.22;100.00
75555;BME280;66087;53.126;17.960;2024-02-16T02:20:55;101133.73;;;9.21;100.00
75555;BME280;66087;53.126;17.960;2024-02-16T02:23:23;101133.66;;;9.21;100.00
75555;BME280;66087;53.126;17.960;2024-02-16T02:25:50;101131.64;;;9.20;100.00
75555;BME280;66087;53.126;17.960;2024-02-16T02:28:17;101130.41;;;9.20;100.00
75555;BME280;66087;53.126;17.960;2024-02-16T02:30:44;101130.33;;;9.19;100.00
75555;BME280;66087;53.126;17.960;2024-02-16T02:33:12;101127.69;;;9.19;100.00
75555;BME280;66087;53.126;17.960;2024-02-16T02:35:40;101126.90;;;9.17;100.00
75555;BME280;66087;53.126;17.960;2024-02-16T02:38:06;101121.40;;;9.17;100.00
75555;BME280;66087;53.126;17.960;2024-02-16T02:40:34;101122.17;;;9.18;100.00
75555;BME280;66087;53.126;17.960;2024-02-16T02:43:01;101118.14;;;9.17;100.00
75555;BME280;66087;53.126;17.960;2024-02-16T02:45:28;101114.89;;;9.16;100.00
75555;BME280;66087;53.126;17.960;2024-02-16T02:47:56;101114.74;;;9.16;100.00
75555;BME280;66087;53.126;17.960;2024-02-16T02:50:23;101114.20;;;9.15;100.00
75555;BME280;66087;53.126;17.960;2024-02-16T02:52:50;101113.41;;;9.14;100.00
75555;BME280;66087;53.126;17.960;2024-02-16T02:55:17;101110.09;;;9.14;100.00
75555;BME280;66087;53.126;17.960;2024-02-16T02:57:44;101109.77;;;9.14;100.00
75555;BME280;66087;53.126;17.960;2024-02-16T03:00:11;101116.75;;;9.15;100.00
75555;BME280;66087;53.126;17.960;2024-02-16T03:02:38;101114.81;;;9.14;100.00
75555;BME280;66087;53.126;17.960;2024-02-16T03:05:06;101115.44;;;9.14;100.00
75555;BME280;66087;53.126;17.960;2024-02-16T03:07:34;101117.52;;;9.14;100.00
75555;BME280;66087;53.126;17.960;2024-02-16T03:10:02;101120.01;;;9.14;100.00
75555;BME280;66087;53.126;17.960;2024-02-16T03:12:31;101121.48;;;9.14;100.00
75555;BME280;66087;53.126;17.960;2024-02-16T03:14:58;101122.41;;;9.13;100.00
75555;BME280;66087;53.126;17.960;2024-02-16T03:17:25;101124.51;;;9.12;100.00
75555;BME280;66087;53.126;17.960;2024-02-16T03:19:54;101126.67;;;9.11;100.00
75555;BME280;66087;53.126;17.960;2024-02-16T03:22:21;101127.52;;;9.11;100.00
75555;BME280;66087;53.126;17.960;2024-02-16T03:24:48;101127.77;;;9.11;100.00
75555;BME280;66087;53.126;17.960;2024-02-16T03:27:15;101129.70;;;9.11;100.00
75555;BME280;66087;53.126;17.960;2024-02-16T03:29:42;101127.60;;;9.11;100.00
75555;BME280;66087;53.126;17.960;2024-02-16T03:32:10;101131.17;;;9.11;100.00
75555;BME280;66087;53.126;17.960;2024-02-16T03:34:38;101128.45;;;9.10;100.00
75555;BME280;66087;53.126;17.960;2024-02-16T03:37:05;101125.04;;;9.09;100.00
75555;BME280;66087;53.126;17.960;2024-02-16T03:39:32;101131.40;;;9.09;100.00
75555;BME280;66087;53.126;17.960;2024-02-16T03:41:59;101129.08;;;9.08;100.00
75555;BME280;66087;53.126;17.960;2024-02-16T03:44:25;101129.69;;;9.07;100.00
75555;BME280;66087;53.126;17.960;2024-02-16T03:46:52;101125.67;;;9.05;100.00
75555;BME280;66087;53.126;17.960;2024-02-16T03:49:19;101126.05;;;9.05;100.00
75555;BME280;66087;53.126;17.960;2024-02-16T03:51:46;101125.96;;;9.04;100.00
75555;BME280;66087;53.126;17.960;2024-02-16T03:54:14;101126.11;;;9.02;100.00
75555;BME280;66087;53.126;17.960;2024-02-16T03:56:41;101127.91;;;9.01;100.00
75555;BME280;66087;53.126;17.960;2024-02-16T03:59:07;101125.73;;;9.00;100.00
75555;BME280;66087;53.126;17.960;2024-02-16T04:01:36;101126.50;;;8.99;100.00
75555;BME280;66087;53.126;17.960;2024-02-16T04:04:03;101125.58;;;8.98;100.00
75555;BME280;66087;53.126;17.960;2024-02-16T04:06:30;101124.95;;;8.97;100.00
75555;BME280;66087;53.126;17.960;2024-02-16T04:08:57;101123.55;;;8.95;100.00
75555;BME280;66087;53.126;17.960;2024-02-16T04:11:23;101120.84;;;8.93;100.00
75555;BME280;66087;53.126;17.960;2024-02-16T04:13:50;101118.05;;;8.92;100.00
75555;BME280;66087;53.126;17.960;2024-02-16T04:16:17;101119.59;;;8.90;100.00
75555;BME280;66087;53.126;17.960;2024-02-16T04:18:44;101119.43;;;8.89;100.00
75555;BME280;66087;53.126;17.960;2024-02-16T04:21:13;101118.98;;;8.87;100.00
75555;BME280;66087;53.126;17.960;2024-02-16T04:23:40;101122.61;;;8.85;100.00
75555;BME280;66087;53.126;17.960;2024-02-16T04:26:06;101123.94;;;8.83;100.00
75555;BME280;66087;53.126;17.960;2024-02-16T04:28:34;101120.59;;;8.82;100.00
75555;BME280;66087;53.126;17.960;2024-02-16T04:31:02;101121.68;;;8.80;100.00
75555;BME280;66087;53.126;17.960;2024-02-16T04:33:29;101120.89;;;8.78;100.00
75555;BME280;66087;53.126;17.960;2024-02-16T04:35:55;101125.46;;;8.76;100.00
75555;BME280;66087;53.126;17.960;2024-02-16T04:38:23;101121.96;;;8.75;100.00
75555;BME280;66087;53.126;17.960;2024-02-16T04:40:50;101119.72;;;8.73;100.00
75555;BME280;66087;53.126;17.960;2024-02-16T04:43:18;101115.77;;;8.72;100.00
75555;BME280;66087;53.126;17.960;2024-02-16T04:45:44;101115.45;;;8.69;100.00
75555;BME280;66087;53.126;17.960;2024-02-16T04:48:11;101116.14;;;8.68;100.00
75555;BME280;66087;53.126;17.960;2024-02-16T04:50:38;101118.00;;;8.67;100.00
75555;BME280;66087;53.126;17.960;2024-02-16T04:53:04;101119.16;;;8.66;100.00
75555;BME280;66087;53.126;17.960;2024-02-16T04:55:31;101116.83;;;8.64;100.00
75555;BME280;66087;53.126;17.960;2024-02-16T04:57:59;101116.21;;;8.63;100.00
75555;BME280;66087;53.126;17.960;2024-02-16T05:00:26;101111.64;;;8.62;100.00
75555;BME280;66087;53.126;17.960;2024-02-16T05:02:54;101109.70;;;8.60;100.00
75555;BME280;66087;53.126;17.960;2024-02-16T05:05:21;101107.44;;;8.58;100.00
75555;BME280;66087;53.126;17.960;2024-02-16T05:07:49;101107.43;;;8.57;100.00
75555;BME280;66087;53.126;17.960;2024-02-16T05:10:16;101108.21;;;8.55;100.00
75555;BME280;66087;53.126;17.960;2024-02-16T05:12:43;101105.96;;;8.53;100.00
75555;BME280;66087;53.126;17.960;2024-02-16T05:15:09;101103.32;;;8.52;100.00
75555;BME280;66087;53.126;17.960;2024-02-16T05:17:36;101102.85;;;8.50;100.00
75555;BME280;66087;53.126;17.960;2024-02-16T05:20:09;101101.45;;;8.49;100.00
75555;BME280;66087;53.126;17.960;2024-02-16T05:22:36;101108.58;;;8.48;100.00
75555;BME280;66087;53.126;17.960;2024-02-16T05:25:03;101108.86;;;8.46;100.00
75555;BME280;66087;53.126;17.960;2024-02-16T05:27:31;101112.52;;;8.46;100.00
75555;BME280;66087;53.126;17.960;2024-02-16T05:29:58;101112.52;;;8.45;100.00
75555;BME280;66087;53.126;17.960;2024-02-16T05:32:24;101115.30;;;8.45;100.00
75555;BME280;66087;53.126;17.960;2024-02-16T05:34:51;101116.46;;;8.43;100.00
75555;BME280;66087;53.126;17.960;2024-02-16T05:37:18;101112.89;;;8.43;100.00
75555;BME280;66087;53.126;17.960;2024-02-16T05:39:46;101110.95;;;8.41;100.00
75555;BME280;66087;53.126;17.960;2024-02-16T05:42:24;101094.64;;;8.27;100.00
75555;BME280;66087;53.126;17.960;2024-02-16T05:44:50;101098.67;;;8.30;100.00
75555;BME280;66087;53.126;17.960;2024-02-16T05:47:18;101100.95;;;8.35;100.00
75555;BME280;66087;53.126;17.960;2024-02-16T05:49:45;101101.93;;;8.32;100.00
75555;BME280;66087;53.126;17.960;2024-02-16T05:52:13;101085.32;;;8.22;100.00
75555;BME280;66087;53.126;17.960;2024-02-16T05:54:47;101099.11;;;8.27;100.00
75555;BME280;66087;53.126;17.960;2024-02-16T05:57:15;101098.85;;;8.23;100.00
75555;BME280;66087;53.126;17.960;2024-02-16T05:59:43;101096.44;;;8.21;100.00
75555;BME280;66087;53.126;17.960;2024-02-16T06:02:10;101096.43;;;8.18;100.00
75555;BME280;66087;53.126;17.960;2024-02-16T06:04:39;101101.14;;;8.15;100.00
75555;BME280;66087;53.126;17.960;2024-02-16T06:07:07;101105.63;;;8.12;100.00
75555;BME280;66087;53.126;17.960;2024-02-16T06:09:34;101107.38;;;8.10;100.00
75555;BME280;66087;53.126;17.960;2024-02-16T06:12:02;101110.41;;;8.09;100.00
75555;BME280;66087;53.126;17.960;2024-02-16T06:14:31;101107.60;;;8.05;100.00
75555;BME280;66087;53.126;17.960;2024-02-16T06:16:58;101107.77;;;8.05;100.00
75555;BME280;66087;53.126;17.960;2024-02-16T06:19:26;101107.13;;;8.04;100.00
75555;BME280;66087;53.126;17.960;2024-02-16T06:21:54;101109.66;;;8.03;100.00
75555;BME280;66087;53.126;17.960;2024-02-16T06:24:24;101112.06;;;8.02;100.00
75555;BME280;66087;53.126;17.960;2024-02-16T06:26:51;101116.55;;;8.00;100.00
75555;BME280;66087;53.126;17.960;2024-02-16T06:29:18;101115.99;;;7.98;100.00
75555;BME280;66087;53.126;17.960;2024-02-16T06:31:46;101117.85;;;7.97;100.00
75555;BME280;66087;53.126;17.960;2024-02-16T06:34:15;101115.60;;;7.95;100.00
75555;BME280;66087;53.126;17.960;2024-02-16T06:36:42;101118.14;;;7.93;100.00
75555;BME280;66087;53.126;17.960;2024-02-16T06:39:11;101118.27;;;7.92;100.00
75555;BME280;66087;53.126;17.960;2024-02-16T06:41:38;101119.60;;;7.91;100.00
75555;BME280;66087;53.126;17.960;2024-02-16T06:44:05;101121.21;;;7.90;100.00
75555;BME280;66087;53.126;17.960;2024-02-16T06:46:32;101120.42;;;7.89;100.00
75555;BME280;66087;53.126;17.960;2024-02-16T06:49:00;101114.23;;;7.88;100.00
75555;BME280;66087;53.126;17.960;2024-02-16T06:51:27;101117.02;;;7.87;100.00
75555;BME280;66087;53.126;17.960;2024-02-16T06:53:55;101117.40;;;7.87;100.00
75555;BME280;66087;53.126;17.960;2024-02-16T06:56:22;101115.78;;;7.87;100.00
75555;BME280;66087;53.126;17.960;2024-02-16T06:58:49;101112.98;;;7.87;100.00
75555;BME280;66087;53.126;17.960;2024-02-16T07:01:16;101108.89;;;7.86;100.00
75555;BME280;66087;53.126;17.960;2024-02-16T07:03:45;101108.29;;;7.87;100.00
75555;BME280;66087;53.126;17.960;2024-02-16T07:06:12;101107.52;;;7.87;100.00
75555;BME280;66087;53.126;17.960;2024-02-16T07:08:40;101109.14;;;7.89;100.00
75555;BME280;66087;53.126;17.960;2024-02-16T07:11:08;101110.16;;;7.92;100.00
75555;BME280;66087;53.126;17.960;2024-02-16T07:13:38;101113.58;;;7.95;100.00
75555;BME280;66087;53.126;17.960;2024-02-16T07:16:06;101113.52;;;7.97;100.00
75555;BME280;66087;53.126;17.960;2024-02-16T07:18:34;101113.93;;;8.04;100.00
75555;BME280;66087;53.126;17.960;2024-02-16T07:21:02;101115.42;;;8.08;100.00
75555;BME280;66087;53.126;17.960;2024-02-16T07:23:29;101113.82;;;8.12;100.00
75555;BME280;66087;53.126;17.960;2024-02-16T07:25:56;101111.83;;;8.16;100.00
75555;BME280;66087;53.126;17.960;2024-02-16T07:28:26;101110.30;;;8.21;100.00
75555;BME280;66087;53.126;17.960;2024-02-16T07:30:53;101109.62;;;8.25;100.00
75555;BME280;66087;53.126;17.960;2024-02-16T07:33:20;101111.29;;;8.30;100.00
75555;BME280;66087;53.126;17.960;2024-02-16T07:35:47;101110.30;;;8.34;100.00
75555;BME280;66087;53.126;17.960;2024-02-16T07:38:14;101112.34;;;8.39;100.00
75555;BME280;66087;53.126;17.960;2024-02-16T07:40:41;101112.91;;;8.44;100.00
75555;BME280;66087;53.126;17.960;2024-02-16T07:43:09;101110.52;;;8.49;100.00
75555;BME280;66087;53.126;17.960;2024-02-16T07:45:37;101110.14;;;8.55;100.00
75555;BME280;66087;53.126;17.960;2024-02-16T07:48:05;101099.29;;;8.51;100.00
75555;BME280;66087;53.126;17.960;2024-02-16T07:50:33;101114.81;;;8.64;100.00
75555;BME280;66087;53.126;17.960;2024-02-16T07:53:00;101113.20;;;8.68;100.00
75555;BME280;66087;53.126;17.960;2024-02-16T07:55:26;101105.16;;;8.73;100.00
75555;BME280;66087;53.126;17.960;2024-02-16T07:57:53;101104.77;;;8.76;100.00
75555;BME280;66087;53.126;17.960;2024-02-16T08:00:20;101106.26;;;8.80;100.00
75555;BME280;66087;53.126;17.960;2024-02-16T08:02:47;101102.08;;;8.83;100.00
75555;BME280;66087;53.126;17.960;2024-02-16T08:05:14;101104.79;;;8.87;100.00
75555;BME280;66087;53.126;17.960;2024-02-16T08:07:41;101106.89;;;8.93;100.00
75555;BME280;66087;53.126;17.960;2024-02-16T08:10:10;101102.32;;;8.97;100.00
75555;BME280;66087;53.126;17.960;2024-02-16T08:12:37;101100.79;;;9.01;100.00
75555;BME280;66087;53.126;17.960;2024-02-16T08:15:06;101105.44;;;9.05;100.00
75555;BME280;66087;53.126;17.960;2024-02-16T08:17:34;101101.41;;;9.09;100.00
75555;BME280;66087;53.126;17.960;2024-02-16T08:20:02;101099.15;;;9.13;100.00
75555;BME280;66087;53.126;17.960;2024-02-16T08:22:30;101100.33;;;9.18;99.96
75555;BME280;66087;53.126;17.960;2024-02-16T08:25:00;101098.47;;;9.20;99.60
75555;BME280;66087;53.126;17.960;2024-02-16T08:27:27;101094.73;;;9.24;99.73
75555;BME280;66087;53.126;17.960;2024-02-16T08:29:54;101095.05;;;9.27;99.47
75555;BME280;66087;53.126;17.960;2024-02-16T08:32:21;101096.52;;;9.31;99.40
75555;BME280;66087;53.126;17.960;2024-02-16T08:34:48;101096.36;;;9.35;99.30
75555;BME280;66087;53.126;17.960;2024-02-16T08:37:16;101094.83;;;9.40;99.58
75555;BME280;66087;53.126;17.960;2024-02-16T08:39:43;101096.04;;;9.45;99.16
75555;BME280;66087;53.126;17.960;2024-02-16T08:42:09;101096.05;;;9.49;98.63
75555;BME280;66087;53.126;17.960;2024-02-16T08:45:26;101100.08;;;9.52;98.66
75555;BME280;66087;53.126;17.960;2024-02-16T08:47:55;101096.03;;;9.56;98.69
75555;BME280;66087;53.126;17.960;2024-02-16T08:50:23;101094.94;;;9.59;98.49
75555;BME280;66087;53.126;17.960;2024-02-16T08:52:51;101091.06;;;9.64;98.27
75555;BME280;66087;53.126;17.960;2024-02-16T08:55:18;101091.27;;;9.70;98.54
75555;BME280;66087;53.126;17.960;2024-02-16T08:57:45;101089.40;;;9.76;98.43
75555;BME280;66087;53.126;17.960;2024-02-16T09:00:12;101088.99;;;9.83;98.62
75555;BME280;66087;53.126;17.960;2024-02-16T09:02:40;101087.58;;;9.91;98.44
75555;BME280;66087;53.126;17.960;2024-02-16T09:05:08;101081.20;;;9.97;97.92
75555;BME280;66087;53.126;17.960;2024-02-16T09:07:36;101080.55;;;10.01;97.77
75555;BME280;66087;53.126;17.960;2024-02-16T09:10:06;101068.53;;;9.99;97.38
75555;BME280;66087;53.126;17.960;2024-02-16T09:12:34;101074.56;;;10.08;96.49
75555;BME280;66087;53.126;17.960;2024-02-16T09:15:01;101079.43;;;10.11;96.66
75555;BME280;66087;53.126;17.960;2024-02-16T09:17:31;101081.00;;;10.15;96.49
75555;BME280;66087;53.126;17.960;2024-02-16T09:19:58;101076.64;;;10.19;95.94
75555;BME280;66087;53.126;17.960;2024-02-16T09:22:24;101076.77;;;10.25;96.05
75555;BME280;66087;53.126;17.960;2024-02-16T09:24:51;101069.98;;;10.31;96.07
75555;BME280;66087;53.126;17.960;2024-02-16T09:27:18;101071.65;;;10.38;96.19
75555;BME280;66087;53.126;17.960;2024-02-16T09:29:46;101065.50;;;10.42;95.55
75555;BME280;66087;53.126;17.960;2024-02-16T09:32:13;101066.48;;;10.47;95.66
75555;BME280;66087;53.126;17.960;2024-02-16T09:34:40;101068.70;;;10.50;94.63
75555;BME280;66087;53.126;17.960;2024-02-16T09:37:07;101072.11;;;10.53;93.92
75555;BME280;66087;53.126;17.960;2024-02-16T09:39:36;101073.33;;;10.58;93.88
75555;BME280;66087;53.126;17.960;2024-02-16T09:42:03;101068.21;;;10.55;93.44
75555;BME280;66087;53.126;17.960;2024-02-16T09:44:31;101079.89;;;10.66;92.64
75555;BME280;66087;53.126;17.960;2024-02-16T09:46:59;101080.25;;;10.69;93.26
75555;BME280;66087;53.126;17.960;2024-02-16T09:49:28;101073.30;;;10.73;93.52
75555;BME280;66087;53.126;17.960;2024-02-16T09:51:59;101073.35;;;10.78;93.48
75555;BME280;66087;53.126;17.960;2024-02-16T09:54:32;101070.28;;;10.83;93.52
75555;BME280;66087;53.126;17.960;2024-02-16T09:57:01;101075.45;;;10.88;93.37
75555;BME280;66087;53.126;17.960;2024-02-16T09:59:30;101072.92;;;10.93;92.86
75555;BME280;66087;53.126;17.960;2024-02-16T11:12:03;101001.87;;;12.50;82.34
75555;BME280;66087;53.126;17.960;2024-02-16T11:14:41;101003.68;;;12.58;82.34
75555;BME280;66087;53.126;17.960;2024-02-16T11:17:14;100997.73;;;12.70;82.68
75555;BME280;66087;53.126;17.960;2024-02-16T11:19:42;100994.52;;;12.80;82.44
75555;BME280;66087;53.126;17.960;2024-02-16T11:22:09;100993.13;;;12.89;81.87
75555;BME280;66087;53.126;17.960;2024-02-16T11:24:45;100983.44;;;12.95;81.32
75555;BME280;66087;53.126;17.960;2024-02-16T11:27:15;100986.89;;;13.08;81.06
75555;BME280;66087;53.126;17.960;2024-02-16T11:29:46;100987.38;;;13.20;82.05
75555;BME280;66087;53.126;17.960;2024-02-16T11:32:13;100979.27;;;13.32;81.52
75555;BME280;66087;53.126;17.960;2024-02-16T11:34:42;100969.73;;;13.42;80.11
75555;BME280;66087;53.126;17.960;2024-02-16T11:37:09;100965.95;;;13.48;80.16
75555;BME280;66087;53.126;17.960;2024-02-16T11:39:41;100963.52;;;13.57;79.49
75555;BME280;66087;53.126;17.960;2024-02-16T11:42:12;100963.93;;;13.63;78.47
75555;BME280;66087;53.126;17.960;2024-02-16T11:44:40;100962.83;;;13.68;78.32
75555;BME280;66087;53.126;17.960;2024-02-16T11:47:08;100959.48;;;13.74;77.68
75555;BME280;66087;53.126;17.960;2024-02-16T11:49:43;100949.64;;;13.71;75.95
75555;BME280;66087;53.126;17.960;2024-02-16T11:52:11;100951.98;;;13.83;75.62
75555;BME280;66087;53.126;17.960;2024-02-16T11:54:38;100942.70;;;13.85;73.85
75555;BME280;66087;53.126;17.960;2024-02-16T11:57:04;100952.30;;;13.89;75.12
75555;BME280;66087;53.126;17.960;2024-02-16T11:59:32;100946.49;;;13.98;74.94
75555;BME280;66087;53.126;17.960;2024-02-16T12:01:59;100942.58;;;14.01;72.01
75555;BME280;66087;53.126;17.960;2024-02-16T12:04:28;100933.10;;;14.03;71.73
75555;BME280;66087;53.126;17.960;2024-02-16T12:06:57;100934.48;;;14.11;72.31
75555;BME280;66087;53.126;17.960;2024-02-16T12:09:27;100934.77;;;14.19;72.28
75555;BME280;66087;53.126;17.960;2024-02-16T12:11:55;100932.22;;;14.27;72.08
75555;BME280;66087;53.126;17.960;2024-02-16T12:14:22;100931.84;;;14.37;72.77
75555;BME280;66087;53.126;17.960;2024-02-16T12:16:50;100931.23;;;14.53;72.12
75555;BME280;66087;53.126;17.960;2024-02-16T12:19:19;100927.20;;;14.68;72.02
75555;BME280;66087;53.126;17.960;2024-02-16T12:21:50;100928.10;;;14.78;71.23
75555;BME280;66087;53.126;17.960;2024-02-16T12:24:18;100926.23;;;14.83;70.55
75555;BME280;66087;53.126;17.960;2024-02-16T12:26:45;100923.70;;;14.85;70.04
75555;BME280;66087;53.126;17.960;2024-02-16T12:29:12;100915.46;;;14.89;70.50
75555;BME280;66087;53.126;17.960;2024-02-16T12:31:40;100915.30;;;14.92;69.68
75555;BME280;66087;53.126;17.960;2024-02-16T12:34:08;100906.23;;;14.92;68.49
75555;BME280;66087;53.126;17.960;2024-02-16T12:36:35;100907.05;;;14.94;69.37
75555;BME280;66087;53.126;17.960;2024-02-16T12:39:03;100906.48;;;14.95;69.84
75555;BME280;66087;53.126;17.960;2024-02-16T12:41:30;100903.38;;;14.94;68.96
75555;BME280;66087;53.126;17.960;2024-02-16T12:43:57;100901.09;;;14.91;68.95
75555;BME280;66087;53.126;17.960;2024-02-16T12:46:24;100898.19;;;14.88;69.20
75555;BME280;66087;53.126;17.960;2024-02-16T12:48:51;100896.98;;;14.84;68.27
75555;BME280;66087;53.126;17.960;2024-02-16T12:51:20;100896.25;;;14.75;68.29
75555;BME280;66087;53.126;17.960;2024-02-16T12:53:47;100894.73;;;14.65;67.17
75555;BME280;66087;53.126;17.960;2024-02-16T12:56:14;100894.61;;;14.58;66.47
75555;BME280;66087;53.126;17.960;2024-02-16T12:58:41;100894.95;;;14.60;67.32
75555;BME280;66087;53.126;17.960;2024-02-16T13:01:08;100895.23;;;14.64;66.91
75555;BME280;66087;53.126;17.960;2024-02-16T13:03:36;100887.83;;;14.72;67.67
75555;BME280;66087;53.126;17.960;2024-02-16T13:06:03;100887.59;;;14.87;67.22
75555;BME280;66087;53.126;17.960;2024-02-16T13:08:31;100886.36;;;15.06;66.38
75555;BME280;66087;53.126;17.960;2024-02-16T13:10:58;100885.85;;;15.25;66.90
75555;BME280;66087;53.126;17.960;2024-02-16T13:13:26;100880.79;;;15.34;67.28
75555;BME280;66087;53.126;17.960;2024-02-16T13:15:53;100878.48;;;15.39;65.90
75555;BME280;66087;53.126;17.960;2024-02-16T13:18:22;100875.33;;;15.40;66.03
75555;BME280;66087;53.126;17.960;2024-02-16T13:20:49;100875.17;;;15.40;66.10
75555;BME280;66087;53.126;17.960;2024-02-16T13:23:16;100875.66;;;15.45;66.24
75555;BME280;66087;53.126;17.960;2024-02-16T13:25:43;100873.81;;;15.50;65.39
75555;BME280;66087;53.126;17.960;2024-02-16T13:28:10;100875.14;;;15.51;64.26
75555;BME280;66087;53.126;17.960;2024-02-16T13:30:40;100871.23;;;15.55;64.61
75555;BME280;66087;53.126;17.960;2024-02-16T13:33:06;100875.30;;;15.61;64.49
75555;BME280;66087;53.126;17.960;2024-02-16T13:35:35;100872.95;;;15.60;63.68
75555;BME280;66087;53.126;17.960;2024-02-16T13:38:04;100871.79;;;15.58;63.82
75555;BME280;66087;53.126;17.960;2024-02-16T13:40:31;100865.69;;;15.57;64.68
75555;BME280;66087;53.126;17.960;2024-02-16T13:43:00;100861.36;;;15.60;64.45
75555;BME280;66087;53.126;17.960;2024-02-16T13:45:30;100859.66;;;15.57;63.25
75555;BME280;66087;53.126;17.960;2024-02-16T13:48:14;100861.98;;;15.44;63.40
75555;BME280;66087;53.126;17.960;2024-02-16T13:50:44;100855.54;;;15.28;63.35
75555;BME280;66087;53.126;17.960;2024-02-16T13:53:12;100854.30;;;15.23;64.22